Terminal Aerodrome Forecast
Issued by NWS

Home | Current Version | Previous Version | Graphics & Text | Print | Product List | Glossary On
Versions: 1 2 3 4 5 6 7 8 9 10 11 12 13 14 15 16 17 18 19
000
FTUS43 KICT 250657 AAA
TAFRSL
TAF AMD
KRSL 250657Z 2507/2606 22010KT P6SM VCSH SCT040 BKN070
      TEMPO 2507/2510 5SM SHRA
     FM251000 27007KT P6SM SCT020 BKN035
     FM251600 36010KT P6SM SCT050
     FM260000 08015KT P6SM SCT100=

USA.gov is the U.S. government's official web portal to all federal, state and local government web resources and services.